createdAt,value
2023-02-11T00:00:47.262Z,21.78
2023-02-11T00:01:52.322Z,21.74
2023-02-11T00:02:56.874Z,21.76
2023-02-11T00:04:01.286Z,21.79
2023-02-11T00:05:05.591Z,21.79
2023-02-11T00:06:09.913Z,21.79
2023-02-11T00:07:14.231Z,21.79
2023-02-11T00:08:18.587Z,21.78
2023-02-11T00:09:22.885Z,21.79
2023-02-11T00:10:27.190Z,21.78
2023-02-11T00:11:31.532Z,21.76
2023-02-11T00:12:35.853Z,21.75
2023-02-11T00:13:40.147Z,21.77
2023-02-11T00:14:44.430Z,21.77
2023-02-11T00:15:49.143Z,21.8
2023-02-11T00:16:54.329Z,21.81
2023-02-11T00:17:58.787Z,21.78
2023-02-11T00:19:03.117Z,21.81
2023-02-11T00:20:08.325Z,21.79
2023-02-11T00:21:12.655Z,21.79
2023-02-11T00:22:16.943Z,21.81
2023-02-11T00:23:21.270Z,21.81
2023-02-11T00:24:25.564Z,21.81
2023-02-11T00:25:30.005Z,21.79
2023-02-11T00:26:34.304Z,21.77
2023-02-11T00:27:38.587Z,21.77
2023-02-11T00:28:42.904Z,21.77
2023-02-11T00:29:47.212Z,21.8
2023-02-11T00:30:51.878Z,21.78
2023-02-11T00:31:56.618Z,21.77
2023-02-11T00:33:01.156Z,21.77
2023-02-11T00:34:07.931Z,21.73
2023-02-11T00:35:12.259Z,21.71
2023-02-11T00:36:17.557Z,21.74
2023-02-11T00:37:21.827Z,21.79
2023-02-11T00:38:26.106Z,21.8
2023-02-11T00:39:30.398Z,21.79
2023-02-11T00:40:34.710Z,21.76
2023-02-11T00:41:39.009Z,21.73
2023-02-11T00:42:43.305Z,21.72
2023-02-11T00:43:47.613Z,21.71
2023-02-11T00:44:51.908Z,21.69
2023-02-11T00:45:56.432Z,21.65
2023-02-11T00:47:00.819Z,21.66
2023-02-11T00:48:05.122Z,21.64
2023-02-11T00:49:09.537Z,21.62
2023-02-11T00:50:13.860Z,21.61
2023-02-11T00:51:18.187Z,21.62
2023-02-11T00:52:22.464Z,21.6
2023-02-11T00:53:26.774Z,21.59
2023-02-11T00:54:31.063Z,21.55
2023-02-11T00:55:35.412Z,21.55
2023-02-11T00:56:39.761Z,21.55
2023-02-11T00:57:44.063Z,21.56
2023-02-11T00:58:48.467Z,21.54
2023-02-11T00:59:52.772Z,21.51
2023-02-11T01:00:57.078Z,21.49
2023-02-11T01:02:01.560Z,21.51
2023-02-11T01:03:05.874Z,21.55
2023-02-11T01:04:10.160Z,21.52
2023-02-11T01:05:14.460Z,21.51
2023-02-11T01:06:18.899Z,21.51
2023-02-11T01:07:23.224Z,21.51
2023-02-11T01:08:27.599Z,21.47
2023-02-11T01:09:31.927Z,21.49
2023-02-11T01:10:36.224Z,21.5
2023-02-11T01:11:40.546Z,21.5
2023-02-11T01:12:44.862Z,21.45
2023-02-11T01:13:49.174Z,21.44
2023-02-11T01:14:53.508Z,21.4
2023-02-11T01:15:57.933Z,21.45
2023-02-11T01:17:02.524Z,21.45
2023-02-11T01:18:06.829Z,21.44
2023-02-11T01:19:11.243Z,21.42
2023-02-11T01:20:15.795Z,21.42
2023-02-11T01:21:20.216Z,21.4
2023-02-11T01:22:24.516Z,21.38
2023-02-11T01:23:28.827Z,21.39
2023-02-11T01:24:33.124Z,21.39
2023-02-11T01:25:37.437Z,21.39
2023-02-11T01:26:41.747Z,21.38
2023-02-11T01:27:46.029Z,21.38
2023-02-11T01:28:50.483Z,21.39
2023-02-11T01:29:54.788Z,21.38
2023-02-11T01:30:59.170Z,21.34
2023-02-11T01:32:03.677Z,21.36
2023-02-11T01:33:08.393Z,21.37
2023-02-11T01:34:12.667Z,21.4
2023-02-11T01:35:16.937Z,21.43
2023-02-11T01:36:21.341Z,21.4
2023-02-11T01:37:25.624Z,21.4
2023-02-11T01:38:29.934Z,21.4
2023-02-11T01:39:34.267Z,21.4
2023-02-11T01:40:38.576Z,21.38
2023-02-11T01:41:43.075Z,21.4
2023-02-11T01:42:49.422Z,21.38
2023-02-11T01:43:55.287Z,21.36
2023-02-11T01:44:59.586Z,21.36
2023-02-11T01:46:03.946Z,21.36
2023-02-11T01:47:11.311Z,21.36
2023-02-11T01:48:15.596Z,21.36
2023-02-11T01:49:19.986Z,21.35
2023-02-11T01:50:24.480Z,21.33
2023-02-11T01:51:29.775Z,21.34
2023-02-11T01:52:34.076Z,21.33
2023-02-11T01:53:38.346Z,21.36
2023-02-11T01:54:42.627Z,21.34
2023-02-11T01:55:47.129Z,21.35
2023-02-11T01:56:52.507Z,21.34
2023-02-11T01:57:56.795Z,21.34
2023-02-11T01:59:01.082Z,21.34
2023-02-11T02:00:05.432Z,21.32
2023-02-11T02:01:09.777Z,21.31
2023-02-11T02:02:14.080Z,21.32
2023-02-11T02:03:18.390Z,21.29
2023-02-11T02:04:22.860Z,21.31
2023-02-11T02:05:29.750Z,21.33
2023-02-11T02:06:34.050Z,21.31
2023-02-11T02:07:38.375Z,21.31
2023-02-11T02:08:42.720Z,21.3
2023-02-11T02:09:47.015Z,21.31
2023-02-11T02:10:51.315Z,21.27
2023-02-11T02:11:55.660Z,21.28
2023-02-11T02:12:59.975Z,21.3
2023-02-11T02:14:04.368Z,21.29
2023-02-11T02:15:08.656Z,21.29
2023-02-11T02:16:12.955Z,21.31
2023-02-11T02:17:17.444Z,21.3
2023-02-11T02:18:21.725Z,21.28
2023-02-11T02:19:26.010Z,21.26
2023-02-11T02:20:30.320Z,21.26
2023-02-11T02:21:34.598Z,21.24
2023-02-11T02:22:38.890Z,21.24
2023-02-11T02:23:43.249Z,21.22
2023-02-11T02:24:47.576Z,21.22
2023-02-11T02:25:52.904Z,21.24
2023-02-11T02:26:57.247Z,21.23
2023-02-11T02:28:01.617Z,21.25
2023-02-11T02:29:06.053Z,21.22
2023-02-11T02:30:10.346Z,21.22
2023-02-11T02:31:14.648Z,21.22
2023-02-11T02:32:19.108Z,21.19
2023-02-11T02:33:23.528Z,21.21
2023-02-11T02:34:27.847Z,21.19
2023-02-11T02:35:32.149Z,21.16
2023-02-11T02:36:36.429Z,21.13
2023-02-11T02:37:40.874Z,21.14
2023-02-11T02:38:45.204Z,21.19
2023-02-11T02:39:49.504Z,21.2
2023-02-11T02:40:53.921Z,21.2
2023-02-11T02:41:58.214Z,21.22
2023-02-11T02:43:02.549Z,21.23
2023-02-11T02:44:06.860Z,21.25
2023-02-11T02:45:11.147Z,21.23
2023-02-11T02:46:15.525Z,21.23
2023-02-11T02:47:19.942Z,21.23
2023-02-11T02:48:26.569Z,21.22
2023-02-11T02:49:30.872Z,21.21
2023-02-11T02:50:35.182Z,21.21
2023-02-11T02:51:39.493Z,21.21
2023-02-11T02:52:43.935Z,21.2
2023-02-11T02:53:48.239Z,21.23
2023-02-11T02:54:52.535Z,21.2
2023-02-11T02:55:56.836Z,21.19
2023-02-11T02:57:01.117Z,21.19
2023-02-11T02:58:05.410Z,21.2
2023-02-11T02:59:09.727Z,21.2
2023-02-11T03:00:14.115Z,21.18
2023-02-11T03:01:18.405Z,21.19
2023-02-11T03:02:22.690Z,21.19
2023-02-11T03:03:26.992Z,21.2
2023-02-11T03:04:31.348Z,21.22
2023-02-11T03:05:35.677Z,21.19
2023-02-11T03:06:39.952Z,21.17
2023-02-11T03:07:44.261Z,21.18
2023-02-11T03:08:48.587Z,21.18
2023-02-11T03:09:52.947Z,21.19
2023-02-11T03:10:57.234Z,21.2
2023-02-11T03:12:01.550Z,21.21
2023-02-11T03:13:05.867Z,21.2
2023-02-11T03:14:10.156Z,21.2
2023-02-11T03:15:14.460Z,21.21
2023-02-11T03:16:18.842Z,21.2
2023-02-11T03:17:23.301Z,21.18
2023-02-11T03:18:27.676Z,21.21
2023-02-11T03:19:31.986Z,21.21
2023-02-11T03:20:36.285Z,21.21
2023-02-11T03:21:40.620Z,21.2
2023-02-11T03:22:44.896Z,21.18
2023-02-11T03:23:49.183Z,21.17
2023-02-11T03:24:53.503Z,21.16
2023-02-11T03:25:57.802Z,21.16
2023-02-11T03:27:02.138Z,21.16
2023-02-11T03:28:06.543Z,21.18
2023-02-11T03:29:11.053Z,21.17
2023-02-11T03:30:15.375Z,21.15
2023-02-11T03:31:19.730Z,21.16
2023-02-11T03:32:24.520Z,21.18
2023-02-11T03:33:28.819Z,21.15
2023-02-11T03:34:33.147Z,21.13
2023-02-11T03:35:37.436Z,21.15
2023-02-11T03:36:41.761Z,21.17
2023-02-11T03:37:46.101Z,21.19
2023-02-11T03:38:50.377Z,21.19
2023-02-11T03:39:54.690Z,21.16
2023-02-11T03:40:59.014Z,21.14
2023-02-11T03:42:03.308Z,21.13
2023-02-11T03:43:07.620Z,21.15
2023-02-11T03:44:11.913Z,21.18
2023-02-11T03:45:16.230Z,21.13
2023-02-11T03:46:20.629Z,21.14
2023-02-11T03:47:25.147Z,21.13
2023-02-11T03:48:29.505Z,21.11
2023-02-11T03:49:33.801Z,21.08
2023-02-11T03:50:38.091Z,21.11
2023-02-11T03:51:42.393Z,21.12
2023-02-11T03:52:46.674Z,21.11
2023-02-11T03:53:50.991Z,21.1
2023-02-11T03:54:55.314Z,21.13
2023-02-11T03:55:59.710Z,21.13
2023-02-11T03:57:04.075Z,21.11
2023-02-11T03:58:08.367Z,21.1
2023-02-11T03:59:12.692Z,21.08
2023-02-11T04:00:17.020Z,21.09
2023-02-11T04:01:21.393Z,21.07
2023-02-11T04:02:25.872Z,21.05
2023-02-11T04:03:30.257Z,21.06
2023-02-11T04:04:34.799Z,21.06
2023-02-11T04:05:39.107Z,21.06
2023-02-11T04:06:43.449Z,21.04
2023-02-11T04:07:47.747Z,21.04
2023-02-11T04:08:52.046Z,21.04
2023-02-11T04:09:56.442Z,21.03
2023-02-11T04:11:00.744Z,21.03
2023-02-11T04:12:05.060Z,21.02
2023-02-11T04:13:10.134Z,21.03
2023-02-11T04:14:14.431Z,21.01
2023-02-11T04:15:18.765Z,21
2023-02-11T04:16:23.084Z,21.01
2023-02-11T04:17:27.470Z,21
2023-02-11T04:18:31.758Z,21
2023-02-11T04:19:36.073Z,21
2023-02-11T04:20:40.365Z,21.02
2023-02-11T04:21:44.654Z,21
2023-02-11T04:22:49.006Z,21.03
2023-02-11T04:23:53.358Z,21.01
2023-02-11T04:24:57.646Z,20.99
2023-02-11T04:26:02.068Z,21
2023-02-11T04:27:06.434Z,20.99
2023-02-11T04:28:10.833Z,21
2023-02-11T04:29:15.246Z,20.99
2023-02-11T04:30:19.538Z,20.97
2023-02-11T04:31:23.938Z,20.99
2023-02-11T04:32:28.776Z,20.98
2023-02-11T04:33:33.164Z,20.98
2023-02-11T04:34:37.447Z,20.96
2023-02-11T04:35:41.740Z,20.93
2023-02-11T04:36:46.036Z,20.93
2023-02-11T04:37:50.326Z,20.93
2023-02-11T04:38:54.601Z,20.95
2023-02-11T04:39:58.901Z,20.94
2023-02-11T04:41:03.200Z,20.92
2023-02-11T04:42:07.489Z,20.93
2023-02-11T04:43:11.788Z,20.95
2023-02-11T04:44:16.120Z,20.96
2023-02-11T04:45:20.564Z,20.96
2023-02-11T04:46:24.911Z,20.96
2023-02-11T04:47:29.491Z,20.95
2023-02-11T04:48:33.767Z,20.98
2023-02-11T04:49:38.110Z,20.96
2023-02-11T04:50:42.403Z,20.95
2023-02-11T04:51:49.263Z,20.92
2023-02-11T04:52:53.748Z,20.92
2023-02-11T04:53:58.053Z,20.93
2023-02-11T04:55:02.370Z,20.94
2023-02-11T04:56:06.734Z,20.93
2023-02-11T04:57:11.078Z,20.93
2023-02-11T04:58:15.377Z,20.91
2023-02-11T04:59:19.726Z,20.91
2023-02-11T05:00:24.008Z,20.92
2023-02-11T05:01:28.358Z,20.92
2023-02-11T05:02:32.830Z,20.91
2023-02-11T05:03:37.118Z,20.92
2023-02-11T05:04:41.403Z,20.93
2023-02-11T05:05:45.713Z,20.91
2023-02-11T05:06:50.080Z,20.98
2023-02-11T05:07:54.388Z,21.07
2023-02-11T05:08:58.734Z,21.15
2023-02-11T05:10:03.019Z,21.23
2023-02-11T05:11:07.318Z,21.35
2023-02-11T05:12:12.682Z,21.46
2023-02-11T05:13:16.969Z,21.56
2023-02-11T05:14:21.267Z,21.69
2023-02-11T05:15:25.593Z,21.8
2023-02-11T05:16:29.880Z,21.88
2023-02-11T05:17:34.250Z,21.99
2023-02-11T05:18:38.559Z,22.04
2023-02-11T05:19:42.850Z,22.11
2023-02-11T05:20:47.140Z,22.17
2023-02-11T05:22:01.960Z,22.21
2023-02-11T05:23:07.198Z,22.27
2023-02-11T05:24:11.510Z,22.31
2023-02-11T05:25:15.774Z,22.35
2023-02-11T05:26:20.109Z,22.36
2023-02-11T05:27:24.408Z,22.4
2023-02-11T05:28:28.886Z,22.41
2023-02-11T05:29:33.395Z,22.42
2023-02-11T05:30:37.756Z,22.42
2023-02-11T05:31:42.237Z,22.46
2023-02-11T05:32:46.571Z,22.48
2023-02-11T05:33:50.864Z,22.5
2023-02-11T05:34:55.153Z,22.51
2023-02-11T05:35:59.570Z,22.53
2023-02-11T05:37:03.907Z,22.54
2023-02-11T05:38:08.284Z,22.55
2023-02-11T05:39:12.572Z,22.57
2023-02-11T05:40:16.877Z,22.57
2023-02-11T05:41:21.154Z,22.55
2023-02-11T05:42:25.478Z,22.54
2023-02-11T05:43:29.795Z,22.56
2023-02-11T05:44:34.109Z,22.58
2023-02-11T05:45:38.578Z,22.56
2023-02-11T05:46:42.880Z,22.54
2023-02-11T05:47:47.427Z,22.54
2023-02-11T05:48:51.716Z,22.54
2023-02-11T05:49:56.009Z,22.55
2023-02-11T05:51:00.292Z,22.53
2023-02-11T05:52:04.656Z,22.52
2023-02-11T05:53:08.976Z,22.5
2023-02-11T05:54:13.905Z,22.47
2023-02-11T05:55:18.470Z,22.45
2023-02-11T05:56:22.837Z,22.44
2023-02-11T05:57:27.165Z,22.41
2023-02-11T05:58:31.458Z,22.4
2023-02-11T05:59:35.733Z,22.37
2023-02-11T06:00:40.011Z,22.35
2023-02-11T06:01:44.342Z,22.32
2023-02-11T06:02:48.715Z,22.27
2023-02-11T06:03:53.298Z,22.24
2023-02-11T06:04:57.797Z,22.21
2023-02-11T06:06:02.101Z,22.19
2023-02-11T06:07:06.386Z,22.16
2023-02-11T06:08:10.675Z,22.13
2023-02-11T06:09:14.950Z,22.1
2023-02-11T06:10:19.293Z,22.07
2023-02-11T06:11:23.602Z,22.03
2023-02-11T06:12:27.896Z,21.99
2023-02-11T06:13:32.185Z,21.99
2023-02-11T06:14:36.503Z,21.96
2023-02-11T06:15:40.889Z,21.96
2023-02-11T06:16:45.344Z,21.93
2023-02-11T06:17:49.640Z,21.91
2023-02-11T06:18:53.978Z,21.9
2023-02-11T06:19:58.268Z,21.89
2023-02-11T06:21:02.562Z,21.87
2023-02-11T06:22:06.924Z,21.86
2023-02-11T06:23:11.666Z,21.84
2023-02-11T06:24:17.511Z,21.85
2023-02-11T06:26:04.038Z,21.83
2023-02-11T06:27:08.392Z,21.82
2023-02-11T06:28:12.787Z,21.82
2023-02-11T06:29:17.461Z,21.79
2023-02-11T06:30:21.720Z,21.8
2023-02-11T06:31:26.076Z,21.77
2023-02-11T06:32:46.449Z,21.76
2023-02-11T06:33:51.336Z,21.74
2023-02-11T06:34:55.625Z,21.74
2023-02-11T06:35:59.906Z,21.77
2023-02-11T06:37:04.224Z,21.75
2023-02-11T06:38:08.542Z,21.75
2023-02-11T06:39:12.837Z,21.74
2023-02-11T06:40:17.180Z,21.73
2023-02-11T06:41:21.502Z,21.74
2023-02-11T06:42:25.800Z,21.73
2023-02-11T06:43:30.103Z,21.75
2023-02-11T06:44:34.442Z,21.75
2023-02-11T06:45:38.739Z,21.74
2023-02-11T06:46:43.078Z,21.77
2023-02-11T06:47:47.467Z,21.81
2023-02-11T06:48:52.062Z,21.82
2023-02-11T06:49:56.341Z,21.83
2023-02-11T06:51:00.672Z,21.85
2023-02-11T06:52:04.978Z,21.85
2023-02-11T06:53:09.250Z,21.88
2023-02-11T06:54:13.660Z,21.87
2023-02-11T06:55:17.929Z,21.88
2023-02-11T06:56:22.230Z,21.89
2023-02-11T06:57:26.527Z,21.9
2023-02-11T06:58:30.832Z,21.92
2023-02-11T06:59:35.142Z,21.92
2023-02-11T07:00:39.429Z,21.93
2023-02-11T07:01:43.850Z,21.94
2023-02-11T07:02:48.439Z,21.94
2023-02-11T07:03:52.812Z,21.94
2023-02-11T07:04:57.128Z,21.93
2023-02-11T07:06:01.392Z,21.93
2023-02-11T07:07:05.710Z,21.93
2023-02-11T07:08:10.006Z,21.93
2023-02-11T07:09:14.344Z,21.92
2023-02-11T07:10:18.625Z,21.91
2023-02-11T07:11:22.918Z,21.89
2023-02-11T07:12:27.196Z,21.89
2023-02-11T07:13:31.507Z,21.88
2023-02-11T07:14:35.836Z,21.88
2023-02-11T07:15:40.144Z,21.87
2023-02-11T07:16:44.454Z,21.88
2023-02-11T07:17:48.734Z,21.9
2023-02-11T07:18:53.054Z,21.89
2023-02-11T07:19:57.418Z,21.87
2023-02-11T07:21:01.711Z,21.88
2023-02-11T07:22:06.006Z,21.89
2023-02-11T07:23:10.280Z,21.91
2023-02-11T07:24:14.593Z,21.92
2023-02-11T07:25:18.904Z,21.93
2023-02-11T07:26:23.201Z,21.95
2023-02-11T07:27:27.479Z,21.94
2023-02-11T07:28:31.945Z,21.98
2023-02-11T07:29:36.498Z,21.99
2023-02-11T07:30:40.821Z,22
2023-02-11T07:31:45.316Z,21.99
2023-02-11T07:32:49.979Z,22.01
2023-02-11T07:33:54.290Z,22.04
2023-02-11T07:34:59.009Z,22.06
2023-02-11T07:36:03.799Z,22.08
2023-02-11T07:37:08.083Z,22.1
2023-02-11T07:38:12.387Z,22.11
2023-02-11T07:39:16.731Z,22.12
2023-02-11T07:40:21.151Z,22.15
2023-02-11T07:41:25.491Z,22.15
2023-02-11T07:42:29.796Z,22.16
2023-02-11T07:43:34.105Z,22.16
2023-02-11T07:44:40.672Z,22.16
2023-02-11T07:45:44.947Z,22.18
2023-02-11T07:46:49.399Z,22.17
2023-02-11T07:47:54.011Z,22.18
2023-02-11T07:48:58.297Z,22.16
2023-02-11T07:50:02.635Z,22.17
2023-02-11T07:51:07.240Z,22.18
2023-02-11T07:52:11.596Z,22.19
2023-02-11T07:53:15.958Z,22.2
2023-02-11T07:54:20.288Z,22.18
2023-02-11T07:55:24.564Z,22.18
2023-02-11T07:56:28.877Z,22.17
2023-02-11T07:57:33.183Z,22.19
2023-02-11T07:58:37.575Z,22.19
2023-02-11T07:59:41.850Z,22.17
2023-02-11T08:00:46.136Z,22.18
2023-02-11T08:01:50.631Z,22.13
2023-02-11T08:02:55.075Z,22.11
2023-02-11T08:03:59.394Z,22.11
2023-02-11T08:05:03.739Z,22.1
2023-02-11T08:06:08.031Z,22.1
2023-02-11T08:07:12.324Z,22.04
2023-02-11T08:08:16.627Z,22.02
2023-02-11T08:09:20.896Z,22
2023-02-11T08:10:25.186Z,21.98
2023-02-11T08:11:29.717Z,21.95
2023-02-11T08:12:34.064Z,21.98
2023-02-11T08:13:38.354Z,21.96
2023-02-11T08:14:42.654Z,21.93
2023-02-11T08:15:46.928Z,21.91
2023-02-11T08:16:52.089Z,21.89
2023-02-11T08:17:56.558Z,21.91
2023-02-11T08:19:00.874Z,21.93
2023-02-11T08:20:05.211Z,21.89
2023-02-11T08:21:09.773Z,21.92
2023-02-11T08:22:14.324Z,21.94
2023-02-11T08:23:18.634Z,21.99
2023-02-11T08:24:22.929Z,21.99
2023-02-11T08:25:27.230Z,21.98
2023-02-11T08:26:31.603Z,21.97
2023-02-11T08:27:35.932Z,22.03
2023-02-11T08:28:40.186Z,22.11
2023-02-11T08:29:44.474Z,22.13
2023-02-11T08:30:49.118Z,22.12
2023-02-11T08:31:54.594Z,22.13
2023-02-11T08:32:59.154Z,22.11
2023-02-11T08:34:03.450Z,22.09
2023-02-11T08:35:07.729Z,22.09
2023-02-11T08:36:12.064Z,22.07
2023-02-11T08:37:16.422Z,22.03
2023-02-11T08:38:20.693Z,22.04
2023-02-11T08:39:25.003Z,22.03
2023-02-11T08:40:29.278Z,22.06
2023-02-11T08:41:33.549Z,22.04
2023-02-11T08:42:37.892Z,22.03
2023-02-11T08:43:42.176Z,22.02
2023-02-11T08:44:46.510Z,22
2023-02-11T08:45:51.159Z,21.99
2023-02-11T08:46:56.666Z,21.95
2023-02-11T08:48:00.998Z,21.95
2023-02-11T08:49:05.313Z,21.93
2023-02-11T08:50:09.601Z,21.9
2023-02-11T08:51:13.945Z,21.88
2023-02-11T08:52:18.447Z,21.89
2023-02-11T08:53:22.766Z,21.88
2023-02-11T08:54:27.140Z,21.83
2023-02-11T08:55:31.419Z,21.85
2023-02-11T08:56:35.722Z,21.84
2023-02-11T08:57:40.034Z,21.86
2023-02-11T08:58:44.336Z,21.84
2023-02-11T08:59:48.650Z,21.79
2023-02-11T09:00:53.333Z,21.74
2023-02-11T09:01:58.100Z,21.74
2023-02-11T09:03:02.508Z,21.73
2023-02-11T09:04:06.812Z,21.69
2023-02-11T09:05:11.086Z,21.69
2023-02-11T09:06:15.528Z,21.69
2023-02-11T09:07:19.869Z,21.69
2023-02-11T09:08:24.249Z,21.67
2023-02-11T09:09:28.546Z,21.74
2023-02-11T09:10:33.082Z,21.76
2023-02-11T09:11:37.390Z,21.7
2023-02-11T09:12:41.748Z,21.71
2023-02-11T09:13:46.043Z,21.68
2023-02-11T09:14:50.374Z,21.69
2023-02-11T09:15:54.667Z,21.74
2023-02-11T09:16:59.020Z,21.7
2023-02-11T09:18:03.675Z,21.68
2023-02-11T09:19:08.201Z,21.7
2023-02-11T09:20:12.547Z,21.73
2023-02-11T09:21:16.819Z,21.78
2023-02-11T09:22:21.132Z,21.84
2023-02-11T09:23:25.444Z,21.86
2023-02-11T09:24:29.809Z,21.89
2023-02-11T09:25:34.178Z,21.89
2023-02-11T09:26:38.467Z,21.92
2023-02-11T09:27:42.751Z,21.94
2023-02-11T09:28:47.129Z,21.96
2023-02-11T09:29:51.645Z,22
2023-02-11T09:30:56.144Z,22.02
2023-02-11T09:32:00.845Z,22.06
2023-02-11T09:33:05.690Z,22.09
2023-02-11T09:34:09.979Z,22.11
2023-02-11T09:35:14.386Z,22.15
2023-02-11T09:36:18.696Z,22.29
2023-02-11T09:37:22.990Z,22.25
2023-02-11T09:38:27.329Z,22.21
2023-02-11T09:39:31.612Z,22.2
2023-02-11T09:40:35.921Z,22.18
2023-02-11T09:41:40.231Z,22.16
2023-02-11T09:42:44.541Z,22.16
2023-02-11T09:43:48.939Z,22.15
2023-02-11T09:44:53.213Z,22.16
2023-02-11T09:45:57.607Z,22.15
2023-02-11T09:47:02.025Z,22.16
2023-02-11T09:48:06.557Z,22.16
2023-02-11T09:49:10.927Z,22.15
2023-02-11T09:50:15.269Z,22.16
2023-02-11T09:51:19.590Z,22.15
2023-02-11T09:52:23.880Z,22.14
2023-02-11T09:53:28.242Z,22.15
2023-02-11T09:54:32.551Z,22.15
2023-02-11T09:55:36.894Z,22.14
2023-02-11T09:56:41.380Z,22.13
2023-02-11T09:57:45.687Z,22.1
2023-02-11T09:58:50.002Z,22.09
2023-02-11T09:59:54.302Z,22.06
2023-02-11T10:00:58.717Z,22.07
2023-02-11T10:02:03.117Z,22.04
2023-02-11T10:03:07.435Z,22.01
2023-02-11T10:04:11.795Z,21.99
2023-02-11T10:05:16.322Z,21.97
2023-02-11T10:06:20.697Z,21.94
2023-02-11T10:07:24.988Z,21.93
2023-02-11T10:08:29.307Z,21.91
2023-02-11T10:09:33.573Z,21.92
2023-02-11T10:10:37.912Z,21.9
2023-02-11T10:11:42.262Z,21.9
2023-02-11T10:12:46.566Z,21.88
2023-02-11T10:13:50.938Z,21.88
2023-02-11T10:14:55.235Z,21.89
2023-02-11T10:15:59.569Z,21.89
2023-02-11T10:17:04.183Z,21.87
2023-02-11T10:18:08.456Z,21.87
2023-02-11T10:19:12.762Z,21.87
2023-02-11T10:20:17.328Z,21.87
2023-02-11T10:21:21.646Z,21.87
2023-02-11T10:22:25.928Z,21.88
2023-02-11T10:23:30.237Z,21.91
2023-02-11T10:24:34.572Z,21.94
2023-02-11T10:25:38.837Z,21.92
2023-02-11T10:26:43.903Z,21.89
2023-02-11T10:27:48.262Z,21.86
2023-02-11T10:28:52.564Z,21.87
2023-02-11T10:29:57.183Z,21.87
2023-02-11T10:31:01.588Z,21.89
2023-02-11T10:32:06.396Z,21.89
2023-02-11T10:33:10.926Z,21.87
2023-02-11T10:34:15.232Z,21.89
2023-02-11T10:35:19.553Z,21.87
2023-02-11T10:36:23.860Z,21.84
2023-02-11T10:37:28.163Z,21.84
2023-02-11T10:38:32.476Z,21.83
2023-02-11T10:39:36.759Z,21.83
2023-02-11T10:40:41.040Z,21.84
2023-02-11T10:41:45.317Z,21.8
2023-02-11T10:42:49.711Z,21.82
2023-02-11T10:43:58.190Z,21.85
2023-02-11T10:45:02.561Z,21.87
2023-02-11T10:46:06.951Z,21.88
2023-02-11T10:47:11.443Z,21.9
2023-02-11T10:48:16.491Z,21.95
2023-02-11T10:49:20.819Z,22
2023-02-11T10:50:25.120Z,21.97
2023-02-11T10:51:29.460Z,21.98
2023-02-11T10:52:33.799Z,22
2023-02-11T10:53:39.144Z,22.01
2023-02-11T10:54:43.486Z,22.03
2023-02-11T10:55:47.782Z,22.03
2023-02-11T10:56:52.129Z,22.05
2023-02-11T10:57:56.435Z,22.06
2023-02-11T10:59:00.788Z,22.08
2023-02-11T11:00:05.111Z,22.1
2023-02-11T11:01:23.726Z,22.09
2023-02-11T11:02:28.749Z,22.09
2023-02-11T11:03:33.018Z,22.09
2023-02-11T11:04:37.394Z,22.1
2023-02-11T11:05:41.843Z,22.08
2023-02-11T11:06:46.117Z,22.09
2023-02-11T11:07:50.415Z,22.1
2023-02-11T11:08:54.686Z,22.08
2023-02-11T11:09:58.962Z,22.08
2023-02-11T11:11:03.275Z,22.09
2023-02-11T11:12:07.614Z,22.08
2023-02-11T11:13:11.908Z,22.08
2023-02-11T11:14:16.216Z,22.08
2023-02-11T11:15:20.494Z,22.09
2023-02-11T11:16:24.840Z,22.08
2023-02-11T11:17:29.515Z,22.06
2023-02-11T11:18:34.864Z,22.06
2023-02-11T11:19:39.167Z,22.04
2023-02-11T11:20:43.482Z,22.04
2023-02-11T11:21:47.774Z,22.02
2023-02-11T11:22:52.098Z,22
2023-02-11T11:23:56.520Z,22.01
2023-02-11T11:25:00.963Z,22
2023-02-11T11:26:05.250Z,21.98
2023-02-11T11:27:09.551Z,21.94
2023-02-11T11:28:13.893Z,21.91
2023-02-11T11:29:18.530Z,21.86
2023-02-11T11:30:22.843Z,21.82
2023-02-11T11:31:27.310Z,21.81
2023-02-11T11:32:32.001Z,21.79
2023-02-11T11:33:36.308Z,21.78
2023-02-11T11:34:40.619Z,21.74
2023-02-11T11:35:44.948Z,21.73
2023-02-11T11:36:49.281Z,21.72
2023-02-11T11:37:53.600Z,21.74
2023-02-11T11:38:57.869Z,21.74
2023-02-11T11:40:02.154Z,21.77
2023-02-11T11:41:06.553Z,21.77
2023-02-11T11:42:10.869Z,21.76
2023-02-11T11:43:15.221Z,21.75
2023-02-11T11:44:19.509Z,21.77
2023-02-11T11:45:23.814Z,21.79
2023-02-11T11:46:28.231Z,21.81
2023-02-11T11:47:32.702Z,21.81
2023-02-11T11:48:36.993Z,21.83
2023-02-11T11:49:41.273Z,21.84
2023-02-11T11:50:45.561Z,21.86
2023-02-11T11:51:50.002Z,21.87
2023-02-11T11:52:54.290Z,21.88
2023-02-11T11:53:58.625Z,21.9
2023-02-11T11:55:02.924Z,21.91
2023-02-11T11:56:07.342Z,21.94
2023-02-11T11:57:11.699Z,22.02
2023-02-11T11:58:15.984Z,22.06
2023-02-11T11:59:20.289Z,22.06
2023-02-11T12:00:24.560Z,22.09
2023-02-11T12:01:28.857Z,22.09
2023-02-11T12:02:33.132Z,22.09
2023-02-11T12:03:37.462Z,22.11
2023-02-11T12:04:41.785Z,22.1
2023-02-11T12:05:46.044Z,22.13
2023-02-11T12:06:50.370Z,22.15
2023-02-11T12:07:54.695Z,22.15
2023-02-11T12:08:58.996Z,22.15
2023-02-11T12:10:03.288Z,22.13
2023-02-11T12:11:07.613Z,22.11
2023-02-11T12:12:11.950Z,22.13
2023-02-11T12:13:16.251Z,22.13
2023-02-11T12:14:20.536Z,22.12
2023-02-11T12:15:24.854Z,22.11
2023-02-11T12:16:29.325Z,22.11
2023-02-11T12:17:33.757Z,22.09
2023-02-11T12:18:38.068Z,22.09
2023-02-11T12:19:42.373Z,22.08
2023-02-11T12:20:46.686Z,22.09
2023-02-11T12:21:51.482Z,22.07
2023-02-11T12:22:55.772Z,22.04
2023-02-11T12:24:00.119Z,22.05
2023-02-11T12:25:04.521Z,22.05
2023-02-11T12:26:08.872Z,22.01
2023-02-11T12:27:13.175Z,21.95
2023-02-11T12:28:17.527Z,21.93
2023-02-11T12:29:22.083Z,21.86
2023-02-11T12:30:26.415Z,21.84
2023-02-11T12:31:31.049Z,21.82
2023-02-11T12:32:35.447Z,21.79
2023-02-11T12:33:39.745Z,21.77
2023-02-11T12:34:44.062Z,21.74
2023-02-11T12:35:48.354Z,21.74
2023-02-11T12:36:52.670Z,21.7
2023-02-11T12:37:57.046Z,21.68
2023-02-11T12:39:03.619Z,21.69
2023-02-11T12:40:07.954Z,21.68
2023-02-11T12:41:12.266Z,21.69
2023-02-11T12:42:16.576Z,21.69
2023-02-11T12:43:21.166Z,21.7
2023-02-11T12:44:25.447Z,21.73
2023-02-11T12:45:29.822Z,21.74
2023-02-11T12:46:34.247Z,21.74
2023-02-11T12:47:38.523Z,21.75
2023-02-11T12:48:42.829Z,21.74
2023-02-11T12:49:47.134Z,21.76
2023-02-11T12:50:51.789Z,21.77
2023-02-11T12:51:56.487Z,21.77
2023-02-11T12:53:00.790Z,21.8
2023-02-11T12:54:06.823Z,21.78
2023-02-11T12:55:11.238Z,21.78
2023-02-11T12:56:15.529Z,21.78
2023-02-11T12:57:19.833Z,21.77
2023-02-11T12:58:32.625Z,21.75
2023-02-11T12:59:48.687Z,21.76
2023-02-11T13:00:53.413Z,21.76
2023-02-11T13:01:58.587Z,21.73
2023-02-11T13:03:03.002Z,21.73
2023-02-11T13:04:07.322Z,21.73
2023-02-11T13:05:14.249Z,21.71
2023-02-11T13:06:18.654Z,21.71
2023-02-11T13:07:23.001Z,21.66
2023-02-11T13:08:27.366Z,21.68
2023-02-11T13:09:31.677Z,21.72
2023-02-11T13:10:35.971Z,21.74
2023-02-11T13:11:40.342Z,21.76
2023-02-11T13:12:44.626Z,21.76
2023-02-11T13:13:48.941Z,21.76
2023-02-11T13:14:53.227Z,21.75
2023-02-11T13:15:57.578Z,21.74
2023-02-11T13:17:01.896Z,21.77
2023-02-11T13:18:06.235Z,21.77
2023-02-11T13:19:10.539Z,21.77
2023-02-11T13:20:14.815Z,21.79
2023-02-11T13:21:19.128Z,21.8
2023-02-11T13:22:23.406Z,21.79
2023-02-11T13:23:29.424Z,21.79
2023-02-11T13:24:35.103Z,21.8
2023-02-11T13:25:39.392Z,21.79
2023-02-11T13:26:43.733Z,21.79
2023-02-11T13:27:48.006Z,21.78
2023-02-11T13:28:52.285Z,21.77
2023-02-11T13:29:56.604Z,21.76
2023-02-11T13:31:01.036Z,21.78
2023-02-11T13:32:05.937Z,21.78
2023-02-11T13:33:10.488Z,21.78
2023-02-11T13:34:14.768Z,21.77
2023-02-11T13:35:19.079Z,21.77
2023-02-11T13:36:23.353Z,21.77
2023-02-11T13:37:27.690Z,21.76
2023-02-11T13:38:31.955Z,21.74
2023-02-11T13:39:36.257Z,21.75
2023-02-11T13:40:40.627Z,21.74
2023-02-11T13:41:44.925Z,21.73
2023-02-11T13:42:49.229Z,21.73
2023-02-11T13:43:53.541Z,21.73
2023-02-11T13:44:57.882Z,21.71
2023-02-11T13:46:02.307Z,21.7
2023-02-11T13:47:09.481Z,21.7
2023-02-11T13:48:13.763Z,21.69
2023-02-11T13:49:18.046Z,21.67
2023-02-11T13:50:22.363Z,21.67
2023-02-11T13:51:26.659Z,21.67
2023-02-11T13:52:30.949Z,21.65
2023-02-11T13:53:35.289Z,21.67
2023-02-11T13:54:39.654Z,21.64
2023-02-11T13:55:43.980Z,21.6